createdAt,value
2019-03-02T00:01:48.718Z,36.20
2019-03-02T00:04:15.372Z,36.25
2019-03-02T00:06:42.493Z,36.27
2019-03-02T00:09:09.877Z,36.26
2019-03-02T00:11:36.845Z,36.31
2019-03-02T00:14:03.856Z,36.31
2019-03-02T00:16:31.185Z,36.26
2019-03-02T00:18:58.438Z,36.23
2019-03-02T00:21:27.688Z,36.15
2019-03-02T00:23:55.279Z,36.07
2019-03-02T00:26:24.293Z,36.08
2019-03-02T00:28:51.575Z,36.03
2019-03-02T00:31:19.034Z,36.03
2019-03-02T00:33:46.308Z,35.98
2019-03-02T00:36:16.033Z,35.95
2019-03-02T00:38:43.472Z,35.95
2019-03-02T00:41:10.741Z,35.99
2019-03-02T00:43:37.758Z,35.96
2019-03-02T00:46:05.591Z,35.92
2019-03-02T00:48:32.573Z,36.03
2019-03-02T00:50:59.528Z,36.08
2019-03-02T00:53:26.813Z,35.96
2019-03-02T00:55:54.026Z,35.51
2019-03-02T00:58:20.943Z,35.42
2019-03-02T01:00:50.032Z,35.55
2019-03-02T01:03:16.924Z,35.65
2019-03-02T01:05:43.896Z,35.72
2019-03-02T01:08:11.085Z,35.76
2019-03-02T01:10:37.984Z,35.83
2019-03-02T01:13:04.914Z,35.81
2019-03-02T01:15:31.890Z,35.78
2019-03-02T01:17:58.863Z,35.76
2019-03-02T01:20:28.679Z,35.81
2019-03-02T01:22:54.958Z,35.80
2019-03-02T01:25:22.908Z,35.75
2019-03-02T01:27:49.844Z,35.73
2019-03-02T01:30:18.446Z,35.69
2019-03-02T01:32:48.830Z,35.59
2019-03-02T01:35:16.561Z,35.61
2019-03-02T01:37:43.921Z,35.56
2019-03-02T01:40:13.521Z,35.55
2019-03-02T01:42:40.526Z,35.56
2019-03-02T01:45:07.506Z,35.46
2019-03-02T01:47:34.455Z,35.35
2019-03-02T01:50:01.752Z,35.24
2019-03-02T01:52:30.609Z,35.13
2019-03-02T01:54:57.336Z,35.09
2019-03-02T01:57:24.616Z,35.10
2019-03-02T01:59:51.550Z,35.06
2019-03-02T02:02:18.481Z,35.00
2019-03-02T02:04:45.652Z,34.95
2019-03-02T02:07:14.403Z,34.92
2019-03-02T02:09:41.565Z,34.93
2019-03-02T02:12:09.855Z,34.90
2019-03-02T02:14:36.824Z,34.87
2019-03-02T02:17:03.765Z,34.86
2019-03-02T02:19:31.114Z,34.80
2019-03-02T02:22:02.140Z,34.77
2019-03-02T02:24:28.271Z,34.76
2019-03-02T02:26:55.292Z,34.81
2019-03-02T02:29:22.264Z,34.78
2019-03-02T02:31:49.200Z,34.77
2019-03-02T02:34:21.685Z,34.86
2019-03-02T02:36:44.971Z,34.82
2019-03-02T02:39:11.945Z,34.77
2019-03-02T02:41:39.202Z,34.79
2019-03-02T02:44:06.487Z,34.78
2019-03-02T02:46:34.492Z,34.80
2019-03-02T02:49:05.604Z,34.85
2019-03-02T02:51:30.491Z,34.91
2019-03-02T02:53:57.490Z,34.95
2019-03-02T02:56:24.448Z,34.89
2019-03-02T02:58:55.619Z,34.81
2019-03-02T03:01:20.387Z,34.80
2019-03-02T03:03:47.361Z,34.80
2019-03-02T03:06:14.280Z,34.82
2019-03-02T03:08:41.635Z,34.81
2019-03-02T03:11:08.679Z,34.79
2019-03-02T03:13:35.983Z,34.77
2019-03-02T03:16:04.227Z,34.70
2019-03-02T03:18:31.206Z,34.69
2019-03-02T03:20:58.109Z,34.70
2019-03-02T03:23:26.422Z,34.72
2019-03-02T03:25:57.047Z,34.69
2019-03-02T03:28:25.980Z,34.79
2019-03-02T03:30:50.984Z,34.81
2019-03-02T03:33:17.933Z,34.80
2019-03-02T03:35:44.898Z,34.79
2019-03-02T03:38:11.877Z,34.81
2019-03-02T03:40:38.826Z,34.79
2019-03-02T03:43:05.730Z,34.81
2019-03-02T03:45:32.742Z,34.82
2019-03-02T03:47:59.730Z,34.82
2019-03-02T03:50:26.700Z,34.78
2019-03-02T03:52:53.988Z,34.75
2019-03-02T03:55:24.898Z,34.76
2019-03-02T03:57:49.596Z,34.68
2019-03-02T04:00:16.507Z,34.68
2019-03-02T04:02:43.882Z,34.66
2019-03-02T04:05:10.829Z,34.67
2019-03-02T04:07:37.842Z,34.67
2019-03-02T04:10:04.851Z,34.76
2019-03-02T04:12:31.805Z,34.79
2019-03-02T04:15:01.456Z,34.82
2019-03-02T04:17:27.368Z,34.82
2019-03-02T04:19:54.329Z,34.84
2019-03-02T04:22:21.759Z,34.87
2019-03-02T04:24:48.745Z,34.85
2019-03-02T04:27:17.202Z,34.75
2019-03-02T04:29:49.826Z,34.79
2019-03-02T04:32:13.832Z,34.87
2019-03-02T04:34:42.059Z,34.90
2019-03-02T04:37:09.375Z,34.75
2019-03-02T04:39:36.390Z,34.67
2019-03-02T04:42:03.394Z,34.70
2019-03-02T04:44:33.162Z,34.85
2019-03-02T04:47:00.121Z,34.97
2019-03-02T04:49:27.489Z,35.13
2019-03-02T04:51:54.504Z,35.27
2019-03-02T04:54:22.770Z,35.45
2019-03-02T04:56:50.050Z,35.53
2019-03-02T04:59:18.608Z,35.60
2019-03-02T05:01:46.326Z,35.71
2019-03-02T05:04:13.761Z,35.84
2019-03-02T05:06:41.101Z,35.96
2019-03-02T05:09:08.049Z,36.04
2019-03-02T05:11:35.456Z,36.11
2019-03-02T05:14:04.294Z,36.22
2019-03-02T05:16:32.477Z,36.27
2019-03-02T05:18:59.841Z,36.34
2019-03-02T05:21:35.033Z,36.42
2019-03-02T05:24:03.374Z,36.46
2019-03-02T05:26:31.321Z,36.56
2019-03-02T05:28:58.718Z,36.64
2019-03-02T05:31:25.998Z,36.64
2019-03-02T05:33:52.944Z,36.70
2019-03-02T05:36:23.025Z,36.74
2019-03-02T05:38:48.494Z,36.79
2019-03-02T05:41:15.495Z,36.85
2019-03-02T05:43:42.866Z,36.88
2019-03-02T05:46:09.850Z,36.88
2019-03-02T05:48:42.867Z,36.91
2019-03-02T05:51:08.117Z,36.95
2019-03-02T05:53:35.102Z,37.03
2019-03-02T05:56:02.709Z,37.09
2019-03-02T05:58:29.701Z,37.10
2019-03-02T06:00:56.680Z,37.14
2019-03-02T06:03:25.970Z,37.15
2019-03-02T06:05:54.349Z,37.17
2019-03-02T06:08:21.740Z,37.16
2019-03-02T06:10:49.165Z,37.15
2019-03-02T06:13:16.145Z,37.16
2019-03-02T06:15:46.336Z,37.19
2019-03-02T06:18:11.793Z,37.24
2019-03-02T06:20:38.789Z,37.27
2019-03-02T06:23:05.765Z,37.35
2019-03-02T06:25:32.812Z,37.42
2019-03-02T06:28:00.103Z,37.46
2019-03-02T06:30:27.349Z,37.43
2019-03-02T06:32:54.740Z,37.42
2019-03-02T06:35:24.196Z,37.44
2019-03-02T06:37:52.991Z,37.45
2019-03-02T06:40:23.533Z,37.46
2019-03-02T06:42:48.774Z,37.39
2019-03-02T06:45:16.223Z,37.43
2019-03-02T06:47:43.489Z,37.47
2019-03-02T06:50:12.169Z,37.46
2019-03-02T06:52:39.114Z,37.52
2019-03-02T06:55:06.072Z,37.57
2019-03-02T06:57:33.042Z,37.55
2019-03-02T07:00:00.364Z,37.61
2019-03-02T07:02:27.298Z,37.64
2019-03-02T07:04:57.794Z,37.68
2019-03-02T07:07:22.976Z,37.75
2019-03-02T07:09:49.915Z,37.79
2019-03-02T07:12:16.831Z,37.76
2019-03-02T07:14:44.185Z,37.66
2019-03-02T07:17:11.543Z,37.60
2019-03-02T07:19:38.523Z,37.68
2019-03-02T07:22:05.510Z,37.74
2019-03-02T07:24:32.781Z,37.71
2019-03-02T07:27:00.176Z,37.71
2019-03-02T07:29:27.099Z,37.76
2019-03-02T07:31:54.392Z,37.69
2019-03-02T07:34:21.734Z,37.70
2019-03-02T07:36:48.829Z,37.67
2019-03-02T07:39:15.779Z,37.60
2019-03-02T07:41:43.034Z,37.58
2019-03-02T07:44:10.405Z,37.60
2019-03-02T07:46:37.444Z,37.58
2019-03-02T07:49:04.827Z,37.54
2019-03-02T07:51:31.851Z,37.48
2019-03-02T07:54:02.167Z,37.43
2019-03-02T07:56:29.584Z,37.38
2019-03-02T07:58:59.172Z,37.28
2019-03-02T08:01:26.309Z,37.24
2019-03-02T08:03:55.940Z,37.18
2019-03-02T08:06:25.623Z,37.18
2019-03-02T08:08:51.093Z,37.10
2019-03-02T08:11:19.793Z,36.99
2019-03-02T08:13:46.879Z,36.89
2019-03-02T08:16:15.645Z,36.79
2019-03-02T08:18:42.733Z,36.75
2019-03-02T08:21:09.917Z,36.77
2019-03-02T08:23:37.186Z,36.71
2019-03-02T08:26:04.727Z,36.61
2019-03-02T08:28:32.198Z,36.51
2019-03-02T08:30:59.386Z,36.43
2019-03-02T08:33:26.431Z,36.35
2019-03-02T08:35:53.558Z,36.33
2019-03-02T08:38:20.553Z,36.33
2019-03-02T08:40:47.619Z,36.34
2019-03-02T08:43:16.476Z,36.35
2019-03-02T08:45:43.305Z,36.25
2019-03-02T08:48:10.291Z,36.12
2019-03-02T08:50:37.316Z,36.05
2019-03-02T08:53:04.333Z,35.98
2019-03-02T08:55:33.590Z,35.90
2019-03-02T08:58:00.301Z,35.70
2019-03-02T09:00:28.335Z,35.51
2019-03-02T09:03:00.430Z,35.42
2019-03-02T09:05:45.880Z,35.35
2019-03-02T09:07:56.175Z,35.42
2019-03-02T09:10:23.736Z,35.38
2019-03-02T09:12:57.969Z,35.19
2019-03-02T09:15:26.267Z,34.96
2019-03-02T09:17:54.222Z,34.96
2019-03-02T09:20:20.542Z,34.90
2019-03-02T09:22:47.765Z,34.79
2019-03-02T09:25:15.338Z,34.74
2019-03-02T09:27:42.308Z,34.68
2019-03-02T09:30:09.332Z,34.60
2019-03-02T09:32:36.444Z,34.59
2019-03-02T09:35:03.431Z,34.57
2019-03-02T09:37:30.722Z,34.49
2019-03-02T09:39:58.944Z,34.38
2019-03-02T09:42:28.934Z,34.22
2019-03-02T09:44:55.975Z,34.21
2019-03-02T09:47:23.286Z,34.09
2019-03-02T09:49:50.259Z,34.22
2019-03-02T09:52:17.270Z,34.12
2019-03-02T09:54:44.613Z,33.98
2019-03-02T09:57:11.623Z,33.99
2019-03-02T09:59:42.018Z,34.08
2019-03-02T10:02:10.587Z,34.12
2019-03-02T10:04:39.450Z,34.19
2019-03-02T10:07:08.798Z,34.28
2019-03-02T10:09:37.766Z,34.23
2019-03-02T10:12:09.991Z,34.17
2019-03-02T10:14:39.865Z,34.02
2019-03-02T10:17:06.838Z,33.89
2019-03-02T10:19:34.529Z,33.67
2019-03-02T10:22:01.483Z,33.66
2019-03-02T10:24:28.512Z,33.57
2019-03-02T10:26:55.471Z,33.62
2019-03-02T10:29:22.683Z,33.58
2019-03-02T10:31:50.738Z,33.48
2019-03-02T10:34:17.723Z,33.49
2019-03-02T10:36:44.938Z,33.71
2019-03-02T10:39:12.080Z,33.88
2019-03-02T10:41:39.777Z,33.99
2019-03-02T10:44:06.757Z,34.09
2019-03-02T10:46:33.706Z,34.13
2019-03-02T10:49:00.609Z,34.25
2019-03-02T10:51:27.947Z,34.22
2019-03-02T10:53:55.850Z,34.12
2019-03-02T10:56:24.720Z,34.13
2019-03-02T10:58:52.118Z,34.23
2019-03-02T11:01:19.424Z,34.18
2019-03-02T11:03:46.720Z,34.16
2019-03-02T11:06:14.120Z,34.19
2019-03-02T11:08:41.453Z,34.18
2019-03-02T11:11:08.414Z,34.12
2019-03-02T11:13:35.400Z,34.09
2019-03-02T11:16:02.698Z,34.17
2019-03-02T11:18:30.903Z,34.32
2019-03-02T11:21:00.077Z,34.29
2019-03-02T11:23:27.174Z,34.37
2019-03-02T11:25:55.789Z,34.43
2019-03-02T11:30:57.839Z,34.45
2019-03-02T11:33:27.533Z,34.40
2019-03-02T11:35:58.256Z,34.41
2019-03-02T11:38:25.202Z,34.38
2019-03-02T11:40:52.475Z,34.32
2019-03-02T11:43:19.531Z,34.33
2019-03-02T11:45:50.239Z,34.36
2019-03-02T11:48:19.580Z,34.35
2019-03-02T11:50:52.458Z,34.46
2019-03-02T11:53:23.867Z,34.63
2019-03-02T11:55:50.119Z,34.65
2019-03-02T11:58:17.587Z,34.67
2019-03-02T12:00:44.957Z,34.79
2019-03-02T12:03:11.945Z,34.91
2019-03-02T12:05:40.376Z,34.98
2019-03-02T12:08:07.454Z,35.19
2019-03-02T12:10:34.912Z,35.23
2019-03-02T12:13:03.701Z,35.39
2019-03-02T12:15:30.906Z,35.53
2019-03-02T12:17:57.903Z,35.57
2019-03-02T12:20:24.941Z,35.64
2019-03-02T12:22:52.789Z,35.65
2019-03-02T12:25:19.745Z,35.72
2019-03-02T12:27:46.723Z,35.80
2019-03-02T12:30:13.802Z,35.84
2019-03-02T12:32:44.305Z,35.96
2019-03-02T12:35:09.640Z,36.10
2019-03-02T12:37:37.369Z,36.10
2019-03-02T12:40:20.902Z,36.12
2019-03-02T12:42:48.025Z,36.05
2019-03-02T12:45:15.143Z,36.49
2019-03-02T12:50:18.906Z,36.96
2019-03-02T13:07:39.565Z,36.15
2019-03-02T13:10:06.534Z,36.11
2019-03-02T13:12:33.745Z,36.14
2019-03-02T13:15:00.725Z,36.24
2019-03-02T13:17:27.998Z,36.25
2019-03-02T13:19:55.004Z,36.05
2019-03-02T13:22:21.994Z,35.91
2019-03-02T13:24:48.951Z,35.76
2019-03-02T13:27:16.114Z,35.81
2019-03-02T13:29:43.097Z,35.85
2019-03-02T13:32:10.143Z,35.82
2019-03-02T13:34:37.101Z,35.77
2019-03-02T13:37:04.313Z,35.84
2019-03-02T13:39:31.739Z,35.84
2019-03-02T13:41:58.747Z,35.84
2019-03-02T13:44:25.956Z,35.83
2019-03-02T13:46:52.970Z,35.87
2019-03-02T13:49:20.247Z,35.88
2019-03-02T13:51:47.295Z,35.96
2019-03-02T13:54:14.601Z,36.06
2019-03-02T13:56:42.900Z,36.03
2019-03-02T13:59:09.895Z,35.99
2019-03-02T14:01:36.893Z,36.08
2019-03-02T14:04:03.831Z,36.05
2019-03-02T14:06:30.717Z,36.17
2019-03-02T14:08:57.913Z,36.28
2019-03-02T14:11:25.210Z,36.28
2019-03-02T14:13:53.354Z,36.39
2019-03-02T14:16:20.263Z,36.41
2019-03-02T14:18:47.314Z,36.39
2019-03-02T14:21:15.901Z,36.39
2019-03-02T14:23:43.317Z,36.39
2019-03-02T14:26:10.289Z,36.45
2019-03-02T14:28:38.302Z,36.50
2019-03-02T14:31:05.547Z,36.55
2019-03-02T14:33:33.004Z,36.62
2019-03-02T14:36:00.264Z,36.70
2019-03-02T14:38:27.759Z,36.81
2019-03-02T14:40:57.691Z,36.76
2019-03-02T14:43:24.698Z,36.68
2019-03-02T14:45:51.742Z,36.62
2019-03-02T14:48:19.205Z,36.63
2019-03-02T14:50:46.117Z,36.67
2019-03-02T14:53:13.009Z,36.66
2019-03-02T14:55:40.331Z,36.74
2019-03-02T14:58:07.885Z,36.77
2019-03-02T15:00:35.422Z,36.79
2019-03-02T15:03:02.636Z,36.79
2019-03-02T15:05:29.649Z,36.79
2019-03-02T15:07:58.954Z,36.83
2019-03-02T15:10:26.840Z,36.86
2019-03-02T15:12:54.210Z,36.77
2019-03-02T15:15:21.211Z,36.84
2019-03-02T15:17:50.671Z,36.81
2019-03-02T15:20:18.061Z,36.79
2019-03-02T15:22:45.024Z,36.75
2019-03-02T15:25:11.907Z,36.74
2019-03-02T15:27:38.914Z,36.67
2019-03-02T15:30:06.173Z,36.65
2019-03-02T15:32:34.094Z,36.67
2019-03-02T15:35:01.065Z,36.74
2019-03-02T15:37:41.988Z,36.79
2019-03-02T15:40:09.294Z,36.83
2019-03-02T15:42:36.989Z,36.85
2019-03-02T15:45:03.964Z,36.80
2019-03-02T15:47:30.969Z,36.83
2019-03-02T15:49:57.998Z,36.91
2019-03-02T15:52:25.288Z,36.96
2019-03-02T15:54:52.174Z,36.98
2019-03-02T15:57:19.048Z,36.96
2019-03-02T15:59:46.367Z,36.97
2019-03-02T16:02:13.336Z,37.03
2019-03-02T16:04:40.564Z,37.03
2019-03-02T16:07:07.566Z,37.10
2019-03-02T16:09:35.525Z,37.13
2019-03-02T16:12:04.067Z,37.15
2019-03-02T16:14:32.769Z,37.17
2019-03-02T16:17:03.621Z,37.16
2019-03-02T16:19:30.288Z,37.14
2019-03-02T16:21:58.628Z,37.07
2019-03-02T16:24:25.648Z,37.06
2019-03-02T16:26:54.075Z,37.04
2019-03-02T16:29:21.182Z,37.05
2019-03-02T16:31:49.030Z,37.04
2019-03-02T16:34:15.978Z,37.12
2019-03-02T16:36:43.150Z,37.06
2019-03-02T16:39:10.528Z,37.09
2019-03-02T16:41:37.862Z,37.11
2019-03-02T16:44:04.805Z,37.10
2019-03-02T16:46:34.986Z,37.08
2019-03-02T16:49:01.059Z,37.06
2019-03-02T16:51:30.502Z,37.02
2019-03-02T16:53:58.623Z,37.21
2019-03-02T16:56:26.740Z,37.39
2019-03-02T16:58:56.804Z,37.41
2019-03-02T17:01:24.823Z,37.46
2019-03-02T17:03:52.102Z,37.43
2019-03-02T17:06:19.087Z,37.53
2019-03-02T17:08:46.651Z,37.52
2019-03-02T17:11:13.882Z,37.55
2019-03-02T17:13:40.963Z,37.56
2019-03-02T17:16:08.000Z,37.60
2019-03-02T17:18:35.476Z,37.63
2019-03-02T17:21:02.815Z,37.58
2019-03-02T17:23:29.823Z,37.61
2019-03-02T17:25:59.709Z,37.62
2019-03-02T17:28:26.724Z,37.60
2019-03-02T17:30:53.767Z,37.63
2019-03-02T17:33:22.579Z,37.71
2019-03-02T17:35:49.912Z,37.71
2019-03-02T17:38:18.533Z,37.78
2019-03-02T17:40:46.682Z,37.89
2019-03-02T17:43:13.775Z,37.97
2019-03-02T17:45:43.666Z,37.99
2019-03-02T17:48:10.907Z,37.93
2019-03-02T17:50:40.428Z,37.87
2019-03-02T17:53:08.799Z,37.87
2019-03-02T17:55:35.804Z,37.89
2019-03-02T17:58:03.075Z,37.89
2019-03-02T18:00:30.022Z,37.94
2019-03-02T18:02:57.465Z,38.02
2019-03-02T18:05:26.196Z,38.16
2019-03-02T18:07:53.177Z,38.22
2019-03-02T18:10:20.466Z,38.27
2019-03-02T18:12:47.805Z,38.26
2019-03-02T18:15:14.797Z,38.29
2019-03-02T18:17:42.112Z,38.27
2019-03-02T18:20:09.596Z,38.33
2019-03-02T18:22:36.919Z,38.41
2019-03-02T18:25:07.904Z,38.46
2019-03-02T18:27:37.144Z,38.46
2019-03-02T18:30:05.939Z,38.50
2019-03-02T18:32:34.189Z,38.56
2019-03-02T18:35:02.669Z,38.59
2019-03-02T18:37:30.835Z,38.61
2019-03-02T18:40:02.570Z,38.63
2019-03-02T18:42:30.820Z,38.66
2019-03-02T18:45:00.599Z,38.66
2019-03-02T18:47:30.054Z,38.67
2019-03-02T18:49:56.071Z,38.71
2019-03-02T18:52:23.015Z,38.71
2019-03-02T18:54:50.678Z,38.70
2019-03-02T18:57:18.007Z,38.71
2019-03-02T18:59:46.706Z,38.70
2019-03-02T19:02:13.479Z,38.71
2019-03-02T19:04:40.777Z,38.72
2019-03-02T19:07:07.742Z,38.78
2019-03-02T19:09:34.657Z,38.83
2019-03-02T19:12:01.854Z,38.86
2019-03-02T19:14:30.263Z,38.86
2019-03-02T19:16:57.784Z,38.93
2019-03-02T19:19:25.374Z,38.99
2019-03-02T19:21:52.326Z,39.03
2019-03-02T19:24:20.633Z,39.05
2019-03-02T19:26:47.613Z,39.11
2019-03-02T19:29:15.667Z,39.05
2019-03-02T19:31:42.670Z,39.03
2019-03-02T19:34:09.991Z,38.99
2019-03-02T19:36:37.008Z,38.96
2019-03-02T19:39:03.892Z,38.94
2019-03-02T19:41:32.486Z,38.90
2019-03-02T19:43:59.736Z,38.87
2019-03-02T19:46:26.696Z,38.84
2019-03-02T19:48:54.123Z,38.91
2019-03-02T19:51:21.358Z,39.02
2019-03-02T19:53:48.625Z,38.97
2019-03-02T19:56:16.114Z,38.88
2019-03-02T19:58:43.054Z,38.79
2019-03-02T20:01:10.453Z,38.80
2019-03-02T20:03:37.497Z,38.82
2019-03-02T20:06:04.808Z,38.86
2019-03-02T20:08:32.221Z,38.88
2019-03-02T20:10:59.517Z,38.83
2019-03-02T20:13:26.833Z,38.91
2019-03-02T20:15:53.806Z,38.93
2019-03-02T20:18:20.809Z,38.97
2019-03-02T20:20:47.828Z,38.97
2019-03-02T20:23:14.762Z,39.00
2019-03-02T20:25:41.742Z,39.00
2019-03-02T20:28:08.736Z,38.93
2019-03-02T20:30:36.155Z,38.90
2019-03-02T20:33:03.077Z,38.89
2019-03-02T20:35:30.311Z,38.91
2019-03-02T20:37:57.326Z,38.95
2019-03-02T20:40:25.449Z,38.90
2019-03-02T20:42:52.499Z,38.90
2019-03-02T20:45:20.584Z,38.92
2019-03-02T20:47:47.560Z,38.94
2019-03-02T20:50:14.535Z,38.89
2019-03-02T20:52:41.520Z,38.86
2019-03-02T20:55:09.703Z,38.79
2019-03-02T20:57:37.741Z,38.79
2019-03-02T21:00:05.024Z,38.75
2019-03-02T21:02:32.846Z,38.72
2019-03-02T21:04:59.908Z,38.71
2019-03-02T21:07:26.824Z,38.65
2019-03-02T21:09:54.204Z,38.64
2019-03-02T21:12:21.389Z,38.61
2019-03-02T21:14:48.440Z,38.63
2019-03-02T21:17:15.470Z,38.67
2019-03-02T21:19:42.463Z,38.73
2019-03-02T21:22:09.604Z,38.71
2019-03-02T21:24:36.585Z,38.64
2019-03-02T21:27:03.923Z,38.64
2019-03-02T21:29:30.925Z,38.61
2019-03-02T21:31:58.765Z,38.63
2019-03-02T21:34:25.955Z,38.68
2019-03-02T21:36:53.207Z,38.66
2019-03-02T21:39:20.618Z,38.72
2019-03-02T21:41:47.968Z,38.72
2019-03-02T21:44:14.921Z,38.73
2019-03-02T21:46:42.077Z,38.77
2019-03-02T21:49:09.050Z,38.74
2019-03-02T21:51:36.348Z,38.71
2019-03-02T21:54:04.593Z,38.67
2019-03-02T21:56:31.874Z,38.66
2019-03-02T21:59:00.681Z,38.68
2019-03-02T22:01:29.254Z,38.74
2019-03-02T22:03:56.317Z,38.93
2019-03-02T22:06:23.309Z,39.47
2019-03-02T22:08:50.362Z,39.69
2019-03-02T22:11:17.335Z,39.68
2019-03-02T22:13:44.695Z,39.35
2019-03-02T22:16:11.567Z,39.21
2019-03-02T22:18:38.897Z,39.08
2019-03-02T22:21:05.874Z,38.94
2019-03-02T22:23:33.189Z,38.80
2019-03-02T22:26:00.348Z,38.73
2019-03-02T22:28:27.361Z,38.70
2019-03-02T22:30:54.259Z,38.73
2019-03-02T22:33:21.201Z,38.79
2019-03-02T22:35:48.199Z,38.42
2019-03-02T22:38:18.111Z,38.24
2019-03-02T22:40:45.286Z,38.27
2019-03-02T22:43:12.243Z,38.46
2019-03-02T22:45:39.481Z,38.61
2019-03-02T22:48:06.860Z,38.64
2019-03-02T22:50:33.891Z,38.82
2019-03-02T22:53:01.386Z,38.86
2019-03-02T22:55:28.343Z,38.92
2019-03-02T22:57:55.270Z,39.00
2019-03-02T23:00:22.501Z,39.04
2019-03-02T23:02:51.024Z,39.14
2019-03-02T23:05:17.967Z,39.16
2019-03-02T23:07:45.934Z,39.41
2019-03-02T23:10:12.816Z,39.47
2019-03-02T23:12:39.989Z,39.50
2019-03-02T23:15:10.062Z,39.60
2019-03-02T23:17:37.090Z,39.79
2019-03-02T23:20:04.414Z,39.88
2019-03-02T23:22:31.577Z,39.87
2019-03-02T23:24:58.811Z,39.85
2019-03-02T23:27:26.065Z,39.75
2019-03-02T23:29:53.327Z,39.71
2019-03-02T23:32:20.598Z,39.71
2019-03-02T23:34:47.939Z,39.65
2019-03-02T23:37:15.179Z,39.53
2019-03-02T23:39:42.426Z,39.44
2019-03-02T23:42:10.721Z,39.40
2019-03-02T23:44:37.968Z,39.39
2019-03-02T23:47:05.213Z,39.36
2019-03-02T23:49:32.104Z,39.30
2019-03-02T23:51:59.065Z,39.28
2019-03-02T23:54:26.053Z,39.35
2019-03-02T23:56:53.020Z,39.44
2019-03-02T23:59:19.984Z,39.44
